Reiles Acres, North Dakota
Current Conditions -  °F | °C
As of 9:53 PM on Friday 31 Oct 2014 (Local Time) from KFAR Reporting Station
Clear Clear  
Wind Chill: -5°   Ceiling: Unl
Heat Index:   Visibility: 10mi
Dew Point: -7°   Wind: 15mph
Humidity: 59%   Direction: 160°SSE
Pressure: 30.38"   Gusts: NA
Location:  46.9259°N, 96.8507°W
Report Text: KFAR 010253Z 16013KT 10SM CLR 01/M07 A3038 RMK AO2 SLP302 T00061067 56015
Loading
Personal Weather Stations






























Interactive Weather Map
Tropical Storm Tracking
New forecast layout! Learn more

10-Day Weather Forecast

Advertisements
Track Severe Weather on mobile